Time;durP1;ratioP1;P1;durP2;ratioP2;P2;SDS_P1;SDS_P2;PMS_P1;PMS_P2;Temp;Humidity;BMP_temperature;BMP_pressure;BME280_temperature;BME280_humidity;BME280_pressure;Samples;Min_cycle;Max_cycle;Signal;HPM_P1;HPM_P2
2021/07/26 00:01:41;;;;;;;0.00;0.00;;;22.20;82.30;;;;;;5113186;28;20072;-90
2021/07/26 00:04:07;;;;;;;0.00;0.00;;;22.20;82.50;;;;;;5116081;28;20493;-90
2021/07/26 00:06:33;;;;;;;0.08;0.08;;;22.20;82.50;;;;;;5117001;28;20116;-90
2021/07/26 00:09:00;;;;;;;0.00;0.00;;;22.30;82.40;;;;;;5116707;28;20049;-90
2021/07/26 00:11:25;;;;;;;0.00;0.00;;;22.30;82.30;;;;;;5116635;28;20027;-90
2021/07/26 00:13:51;;;;;;;0.05;0.05;;;22.30;82.40;;;;;;5116503;28;20026;-90
2021/07/26 00:16:17;;;;;;;0.00;0.00;;;22.40;82.60;;;;;;5116616;28;20533;-90
2021/07/26 00:18:42;;;;;;;0.00;0.00;;;22.40;82.60;;;;;;5116450;28;20492;-90
2021/07/26 00:21:08;;;;;;;0.05;0.05;;;22.40;82.70;;;;;;5116540;28;20055;-90
2021/07/26 00:23:34;;;;;;;0.00;0.00;;;22.50;82.90;;;;;;5116494;28;20114;-90
2021/07/26 00:25:59;;;;;;;0.00;0.00;;;22.50;82.90;;;;;;5116665;28;20084;-90
2021/07/26 00:28:25;;;;;;;0.00;0.00;;;22.50;83.00;;;;;;5116314;28;20500;-90
2021/07/26 00:30:51;;;;;;;0.00;0.00;;;22.60;83.30;;;;;;5117342;28;20038;-90
2021/07/26 00:33:57;;;;;;;0.00;0.00;;;22.60;83.50;;;;;;5117048;28;20024;-90
2021/07/26 00:36:23;;;;;;;0.00;0.00;;;22.60;83.80;;;;;;5116217;28;20044;-90
2021/07/26 00:38:49;;;;;;;0.10;0.10;;;22.60;84.30;;;;;;5116149;28;20051;-90
2021/07/26 00:41:16;;;;;;;0.00;0.00;;;22.60;85.10;;;;;;5117394;28;20074;-90
2021/07/26 00:43:42;;;;;;;0.00;0.00;;;22.70;85.60;;;;;;5115867;28;20024;-90
2021/07/26 00:46:08;;;;;;;0.00;0.00;;;22.70;85.90;;;;;;5115970;28;20388;-90
2021/07/26 00:48:34;;;;;;;0.00;0.00;;;22.70;86.30;;;;;;5115877;28;20037;-90
2021/07/26 00:51:02;;;;;;;0.00;0.00;;;22.70;86.70;;;;;;5117300;28;20031;-90
2021/07/26 00:53:28;;;;;;;0.00;0.00;;;22.70;87.20;;;;;;5115800;28;20160;-90
2021/07/26 00:55:54;;;;;;;0.00;0.00;;;22.70;87.50;;;;;;5117222;28;20106;-90
2021/07/26 00:58:20;;;;;;;0.00;0.00;;;22.70;88.20;;;;;;5116864;27;20020;-90
2021/07/26 01:00:45;;;;;;;0.00;0.00;;;22.60;88.90;;;;;;5115469;28;20442;-90
2021/07/26 01:03:11;;;;;;;0.10;0.10;;;22.60;89.30;;;;;;5116550;28;20091;-90
2021/07/26 01:05:37;;;;;;;0.00;0.00;;;22.60;89.80;;;;;;5115178;28;20031;-90
2021/07/26 01:08:03;;;;;;;0.00;0.00;;;22.60;90.00;;;;;;5115616;28;20380;-90
2021/07/26 01:10:28;;;;;;;0.00;0.00;;;22.60;90.00;;;;;;5115513;28;20019;-90
2021/07/26 01:12:54;;;;;;;0.00;0.00;;;22.60;90.10;;;;;;5115234;28;20016;-90
2021/07/26 01:15:20;;;;;;;0.00;0.00;;;22.60;90.20;;;;;;5114381;28;20130;-90
2021/07/26 01:18:21;;;;;;;0.00;0.00;;;22.60;90.30;;;;;;5115134;28;20027;-90
2021/07/26 01:20:49;;;;;;;0.00;0.00;;;22.60;90.90;;;;;;5115070;28;20043;-90
2021/07/26 01:23:15;;;;;;;0.00;0.00;;;22.60;90.50;;;;;;5115077;28;20476;-90
2021/07/26 01:25:40;;;;;;;0.00;0.00;;;22.50;90.50;;;;;;5114947;28;20039;-90
2021/07/26 01:28:06;;;;;;;0.10;0.10;;;22.50;90.50;;;;;;5114713;28;20404;-90
2021/07/26 01:30:33;;;;;;;0.00;0.00;;;22.50;90.80;;;;;;5115231;28;20386;-90
2021/07/26 01:32:58;;;;;;;0.00;0.00;;;22.50;91.00;;;;;;5114949;28;20100;-90
2021/07/26 01:35:24;;;;;;;0.05;0.05;;;22.50;91.10;;;;;;5116017;28;20532;-90
2021/07/26 01:37:50;;;;;;;0.00;0.00;;;22.50;91.00;;;;;;5114675;28;20119;-90
2021/07/26 01:40:16;;;;;;;0.00;0.00;;;22.50;91.20;;;;;;5114515;28;20039;-90
2021/07/26 01:42:45;;;;;;;0.10;0.10;;;22.60;91.20;;;;;;5115097;28;20038;-90
2021/07/26 01:45:11;;;;;;;0.00;0.00;;;22.60;91.20;;;;;;5114666;28;20047;-90
2021/07/26 01:47:48;;;;;;;0.00;0.00;;;22.60;91.10;;;;;;5116032;28;20094;-90
2021/07/26 01:50:18;;;;;;;0.08;0.08;;;22.60;91.10;;;;;;5116060;28;20391;-90
2021/07/26 01:52:43;;;;;;;0.00;0.00;;;22.60;91.10;;;;;;5114648;28;20015;-90
2021/07/26 01:55:10;;;;;;;0.00;0.00;;;22.60;90.90;;;;;;5114597;28;20498;-90
2021/07/26 01:57:36;;;;;;;0.00;0.00;;;22.70;90.80;;;;;;5123354;28;20023;-89
2021/07/26 02:00:03;;;;;;;0.00;0.00;;;22.60;90.70;;;;;;5128686;28;20020;-89
2021/07/26 02:02:29;;;;;;;0.08;0.08;;;22.60;90.80;;;;;;5118355;28;20392;-90
2021/07/26 02:04:55;;;;;;;0.00;0.00;;;22.60;90.70;;;;;;5114334;28;20020;-90
2021/07/26 02:07:21;;;;;;;0.08;0.08;;;22.60;90.60;;;;;;5114343;28;20126;-90
2021/07/26 02:09:47;;;;;;;0.00;0.00;;;22.50;90.60;;;;;;5115289;28;20459;-90
2021/07/26 02:12:12;;;;;;;0.00;0.00;;;22.40;90.60;;;;;;5115320;28;20024;-90
2021/07/26 02:14:38;;;;;;;0.10;0.10;;;22.40;90.40;;;;;;5114696;28;20041;-90
2021/07/26 02:17:04;;;;;;;0.00;0.00;;;22.40;90.40;;;;;;5114558;28;20130;-90
2021/07/26 02:19:29;;;;;;;0.00;0.00;;;22.50;90.50;;;;;;5114152;28;20023;-90
2021/07/26 02:21:55;;;;;;;0.00;0.00;;;22.50;90.50;;;;;;5114097;28;20046;-90
2021/07/26 02:24:21;;;;;;;0.00;0.00;;;22.50;90.50;;;;;;5113960;28;20066;-90
2021/07/26 02:26:46;;;;;;;0.10;0.10;;;22.50;90.50;;;;;;5114225;28;20354;-90
2021/07/26 02:29:12;;;;;;;0.00;0.00;;;22.50;90.50;;;;;;5113964;28;20366;-90
2021/07/26 02:31:38;;;;;;;0.10;0.10;;;22.60;90.50;;;;;;5115434;28;20028;-90
2021/07/26 02:34:04;;;;;;;0.00;0.00;;;22.60;90.40;;;;;;5113954;28;20023;-90
2021/07/26 02:36:30;;;;;;;0.10;0.10;;;22.70;90.20;;;;;;5113979;28;20027;-90
2021/07/26 02:38:55;;;;;;;0.00;0.00;;;22.70;90.00;;;;;;5114950;28;20023;-90
2021/07/26 02:41:21;;;;;;;0.00;0.00;;;22.70;90.00;;;;;;5113701;28;20067;-90
2021/07/26 02:43:47;;;;;;;0.00;0.00;;;22.70;90.00;;;;;;5113671;28;20026;-90
2021/07/26 02:46:13;;;;;;;0.00;0.00;;;22.70;90.00;;;;;;5113837;28;20503;-90
2021/07/26 02:48:39;;;;;;;0.00;0.00;;;22.70;89.80;;;;;;5113500;28;20028;-90
2021/07/26 02:51:05;;;;;;;0.10;0.10;;;22.80;89.40;;;;;;5116395;28;20080;-90
2021/07/26 02:53:32;;;;;;;0.00;0.00;;;22.90;89.00;;;;;;5116420;28;20024;-90
2021/07/26 02:55:58;;;;;;;0.00;0.00;;;22.90;88.60;;;;;;5115025;28;20054;-90
2021/07/26 02:58:24;;;;;;;0.00;0.00;;;22.90;88.20;;;;;;5113360;28;20024;-90
2021/07/26 03:00:50;;;;;;;0.00;0.00;;;22.90;88.10;;;;;;5114701;28;20511;-90
2021/07/26 03:03:16;;;;;;;0.00;0.00;;;22.90;88.00;;;;;;5114364;28;20019;-90
2021/07/26 03:05:42;;;;;;;0.00;0.00;;;23.00;87.80;;;;;;5113977;28;20031;-90
2021/07/26 03:08:08;;;;;;;0.00;0.00;;;23.00;87.50;;;;;;5113777;28;20019;-90
2021/07/26 03:10:33;;;;;;;0.00;0.00;;;23.00;87.10;;;;;;5113777;28;20023;-90
2021/07/26 03:12:59;;;;;;;0.00;0.00;;;23.10;87.00;;;;;;5118491;28;20023;-91
2021/07/26 03:15:25;;;;;;;0.00;0.00;;;23.10;87.00;;;;;;5113632;28;20027;-90
2021/07/26 03:17:51;;;;;;;0.00;0.00;;;23.10;86.90;;;;;;5113175;28;20023;-90
2021/07/26 03:20:17;;;;;;;0.00;0.00;;;23.10;86.90;;;;;;5112847;28;20031;-90
2021/07/26 03:22:58;;;;;;;0.00;0.00;;;23.20;87.10;;;;;;5113154;28;20030;-90
2021/07/26 03:25:24;;;;;;;0.00;0.00;;;23.20;87.10;;;;;;5115022;28;20076;-90
2021/07/26 03:27:50;;;;;;;0.00;0.00;;;23.20;87.20;;;;;;5113086;28;20396;-90
2021/07/26 03:30:17;;;;;;;0.00;0.00;;;23.30;87.10;;;;;;5112923;28;20031;-90
2021/07/26 03:32:44;;;;;;;0.00;0.00;;;23.30;87.00;;;;;;5115601;28;20077;-90
2021/07/26 03:35:11;;;;;;;0.00;0.00;;;23.30;86.70;;;;;;5113845;28;20023;-90
2021/07/26 03:37:40;;;;;;;0.00;0.00;;;23.40;86.70;;;;;;5120267;28;20020;-90
2021/07/26 03:40:07;;;;;;;0.03;0.03;;;23.40;86.70;;;;;;5121609;28;20440;-90
2021/07/26 03:42:34;;;;;;;0.00;0.00;;;23.50;86.50;;;;;;5114840;28;20039;-90
2021/07/26 03:45:00;;;;;;;0.00;0.00;;;23.50;86.30;;;;;;5114095;28;20028;-91
2021/07/26 03:47:26;;;;;;;0.00;0.00;;;23.50;86.00;;;;;;5114624;28;20081;-90
2021/07/26 03:49:51;;;;;;;0.00;0.00;;;23.60;85.70;;;;;;5113355;28;20414;-90
2021/07/26 03:52:18;;;;;;;0.00;0.00;;;23.60;85.30;;;;;;5114203;28;20083;-90
2021/07/26 03:54:44;;;;;;;0.05;0.05;;;23.70;85.10;;;;;;5112773;28;20020;-90
2021/07/26 03:57:10;;;;;;;0.00;0.00;;;23.80;84.70;;;;;;5112655;28;20039;-90
2021/07/26 03:59:35;;;;;;;0.00;0.00;;;23.90;84.80;;;;;;5112586;28;20193;-90
2021/07/26 04:02:02;;;;;;;0.00;0.00;;;23.90;84.80;;;;;;5112840;28;20122;-90
2021/07/26 04:04:28;;;;;;;0.00;0.00;;;24.10;84.50;;;;;;5116166;28;20019;-90
2021/07/26 04:06:57;;;;;;;0.00;0.00;;;24.10;83.40;;;;;;5116606;28;20561;-90
2021/07/26 04:09:26;;;;;;;0.00;0.00;;;24.30;82.70;;;;;;5112988;28;20027;-90
2021/07/26 04:12:00;;;;;;;0.00;0.00;;;24.50;81.90;;;;;;5112606;28;20031;-90
2021/07/26 04:14:28;;;;;;;0.00;0.00;;;24.80;81.20;;;;;;5112988;28;20028;-90
2021/07/26 04:16:55;;;;;;;0.00;0.00;;;25.10;80.70;;;;;;5114152;28;20035;-90
2021/07/26 04:19:20;;;;;;;0.00;0.00;;;25.30;79.80;;;;;;5112168;28;20051;-90
2021/07/26 04:21:46;;;;;;;0.00;0.00;;;25.50;78.90;;;;;;5112418;28;20116;-90
2021/07/26 04:24:12;;;;;;;0.00;0.00;;;25.80;77.70;;;;;;5114119;28;20495;-91
2021/07/26 04:26:38;;;;;;;0.00;0.00;;;26.10;76.50;;;;;;5096465;28;20475;-90
2021/07/26 04:29:03;;;;;;;0.10;0.00;;;26.30;75.50;;;;;;5113276;28;20024;-90
2021/07/26 04:31:29;;;;;;;0.00;0.00;;;26.60;74.80;;;;;;5114956;28;20504;-90
2021/07/26 04:33:55;;;;;;;0.00;0.00;;;26.90;73.80;;;;;;5112389;28;20122;-89
2021/07/26 04:36:21;;;;;;;0.00;0.00;;;27.10;73.50;;;;;;5112440;28;20032;-90
2021/07/26 04:38:46;;;;;;;0.00;0.00;;;27.30;71.90;;;;;;5115055;28;20028;-90
2021/07/26 04:41:12;;;;;;;0.00;0.00;;;27.60;71.00;;;;;;5113855;28;20072;-90
2021/07/26 04:43:38;;;;;;;0.00;0.00;;;27.70;70.10;;;;;;5114251;28;20023;-92
2021/07/26 04:46:05;;;;;;;0.00;0.00;;;27.70;69.70;;;;;;5114282;28;20043;-89
2021/07/26 04:48:31;;;;;;;0.00;0.00;;;27.80;69.50;;;;;;5115584;28;20023;-91
2021/07/26 04:50:56;;;;;;;0.00;0.00;;;27.90;69.20;;;;;;5117414;28;20032;-90
2021/07/26 04:53:22;;;;;;;0.00;0.00;;;28.00;69.10;;;;;;5116103;28;20023;-91
2021/07/26 04:55:48;;;;;;;0.00;0.00;;;28.20;68.90;;;;;;5119336;28;20019;-91
2021/07/26 04:58:13;;;;;;;0.00;0.00;;;28.30;68.50;;;;;;5118023;28;20027;-90
2021/07/26 05:00:39;;;;;;;0.00;0.00;;;28.50;68.30;;;;;;5116847;28;20031;-89
2021/07/26 05:03:09;;;;;;;0.00;0.00;;;28.60;68.20;;;;;;5120507;28;20448;-91
2021/07/26 05:05:36;;;;;;;0.00;0.00;;;28.90;67.90;;;;;;5118052;28;20028;-90
2021/07/26 05:08:02;;;;;;;0.00;0.00;;;29.10;67.70;;;;;;5117765;28;20460;-91
2021/07/26 05:10:27;;;;;;;0.00;0.00;;;29.30;67.70;;;;;;5118175;28;20040;-91
2021/07/26 05:12:53;;;;;;;0.00;0.00;;;29.50;67.70;;;;;;5115969;28;20028;-92
2021/07/26 05:15:19;;;;;;;0.00;0.00;;;29.60;67.40;;;;;;5117078;28;20032;-89
2021/07/26 05:17:44;;;;;;;0.00;0.00;;;29.70;67.70;;;;;;5115302;28;20024;-90
2021/07/26 05:20:10;;;;;;;0.00;0.00;;;29.80;67.40;;;;;;5115356;28;20020;-90
2021/07/26 05:22:39;;;;;;;0.00;0.00;;;29.90;67.00;;;;;;5115640;28;20039;-90
2021/07/26 05:25:08;;;;;;;0.00;0.00;;;29.90;67.50;;;;;;5123211;28;20030;-90
2021/07/26 05:27:35;;;;;;;0.00;0.00;;;30.00;67.20;;;;;;5122195;28;20028;-92
2021/07/26 05:30:03;;;;;;;0.00;0.00;;;30.30;66.30;;;;;;5116300;28;20054;-89
2021/07/26 05:32:29;;;;;;;0.00;0.00;;;30.60;66.50;;;;;;5116203;28;20035;-89
2021/07/26 05:34:55;;;;;;;0.00;0.00;;;30.90;65.10;;;;;;5116804;28;20537;-90
2021/07/26 05:37:20;;;;;;;0.00;0.00;;;31.10;65.00;;;;;;5114014;28;20504;-88
2021/07/26 05:39:46;;;;;;;0.00;0.00;;;31.40;64.30;;;;;;5115482;28;20035;-89
2021/07/26 05:42:12;;;;;;;0.00;0.00;;;31.70;63.50;;;;;;5112643;28;20035;-88
2021/07/26 05:44:39;;;;;;;0.00;0.00;;;31.90;63.20;;;;;;5112815;28;20114;-88
2021/07/26 05:47:06;;;;;;;0.00;0.00;;;32.10;61.10;;;;;;5112868;28;20473;-87
2021/07/26 05:49:32;;;;;;;0.00;0.00;;;32.20;61.20;;;;;;5114911;28;20103;-88
2021/07/26 05:51:58;;;;;;;0.00;0.00;;;32.30;61.20;;;;;;5114939;28;20062;-87
2021/07/26 05:54:23;;;;;;;0.00;0.00;;;32.40;61.00;;;;;;5116825;28;20425;-89
2021/07/26 05:56:50;;;;;;;0.00;0.00;;;32.30;59.90;;;;;;5116675;28;20115;-90
2021/07/26 05:59:16;;;;;;;0.00;0.00;;;32.30;60.30;;;;;;5116772;28;20039;-90
2021/07/26 06:01:48;;;;;;;0.00;0.00;;;32.40;60.60;;;;;;5119712;28;20036;-88
2021/07/26 06:04:22;;;;;;;0.00;0.00;;;32.60;60.40;;;;;;5115407;28;20028;-89
2021/07/26 06:06:48;;;;;;;;;;;32.80;59.80;;;;;;5114327;28;20112;-92
2021/07/26 06:09:14;;;;;;;0.00;0.00;;;33.10;60.00;;;;;;5120458;28;19959;-90
2021/07/26 06:11:41;;;;;;;0.00;0.00;;;33.30;57.80;;;;;;5112276;28;20024;-89
2021/07/26 06:14:11;;;;;;;0.00;0.00;;;33.60;57.30;;;;;;5116066;28;20116;-90
2021/07/26 06:16:44;;;;;;;0.00;0.00;;;33.90;56.80;;;;;;5113081;28;20036;-89
2021/07/26 06:19:11;;;;;;;0.00;0.00;;;34.00;55.70;;;;;;5115865;28;20035;-90
2021/07/26 06:21:42;;;;;;;0.00;0.00;;;34.00;55.60;;;;;;5115962;28;20044;-90
2021/07/26 06:24:07;;;;;;;0.00;0.00;;;34.00;54.90;;;;;;5116194;28;20106;-90
2021/07/26 06:26:33;;;;;;;0.00;0.00;;;34.00;54.70;;;;;;5112981;28;20027;-89
2021/07/26 06:28:59;;;;;;;0.00;0.00;;;34.00;54.40;;;;;;5118621;28;20023;-89
2021/07/26 06:31:25;;;;;;;0.00;0.00;;;34.20;54.40;;;;;;5119376;28;20028;-89
2021/07/26 06:33:51;;;;;;;0.00;0.00;;;34.30;54.10;;;;;;5120230;28;20019;-88
2021/07/26 06:36:17;;;;;;;0.00;0.00;;;34.50;54.20;;;;;;5116312;28;20036;-90
2021/07/26 06:38:42;;;;;;;0.00;0.00;;;34.80;54.30;;;;;;5117472;28;20015;-89
2021/07/26 06:41:08;;;;;;;0.00;0.00;;;35.30;54.00;;;;;;5129890;28;20044;-90
2021/07/26 06:43:34;;;;;;;0.00;0.00;;;35.60;53.20;;;;;;5112249;28;20027;-89
2021/07/26 06:46:03;;;;;;;0.00;0.00;;;35.90;53.10;;;;;;5113440;28;20024;-87
2021/07/26 06:48:29;;;;;;;0.00;0.00;;;35.90;51.50;;;;;;5116131;28;20028;-91
2021/07/26 06:50:55;;;;;;;0.10;0.10;;;35.80;51.10;;;;;;5119002;28;20024;-89
2021/07/26 06:53:21;;;;;;;0.00;0.00;;;35.70;50.70;;;;;;5117081;28;20031;-90
2021/07/26 06:55:47;;;;;;;0.00;0.00;;;35.70;50.50;;;;;;5121853;28;20024;-89
2021/07/26 06:58:12;;;;;;;0.00;0.00;;;35.80;50.40;;;;;;5111678;28;20518;-88
2021/07/26 07:00:38;;;;;;;0.00;0.00;;;36.10;50.10;;;;;;5112350;28;20130;-91
2021/07/26 07:03:04;;;;;;;0.00;0.00;;;36.30;49.90;;;;;;5113255;28;20118;-89
2021/07/26 07:05:30;;;;;;;0.10;0.10;;;36.60;49.70;;;;;;5112443;28;20028;-88
2021/07/26 07:07:55;;;;;;;0.10;0.10;;;36.70;49.20;;;;;;5111426;28;20118;-89
2021/07/26 07:10:21;;;;;;;0.00;0.00;;;37.10;49.00;;;;;;5112799;28;20024;-89
2021/07/26 07:12:50;;;;;;;0.00;0.00;;;37.40;48.80;;;;;;5116932;28;20034;-90
2021/07/26 07:15:19;;;;;;;0.00;0.00;;;37.70;49.80;;;;;;5116321;28;20015;-88
2021/07/26 07:17:47;;;;;;;0.10;0.10;;;38.10;50.50;;;;;;5111279;28;20035;-91
2021/07/26 07:20:13;;;;;;;0.08;0.08;;;38.40;50.50;;;;;;5112987;28;20023;-90
2021/07/26 07:22:39;;;;;;;0.10;0.10;;;38.60;50.60;;;;;;5113685;28;20027;-89
2021/07/26 07:25:05;;;;;;;0.10;0.10;;;38.80;50.00;;;;;;5117588;28;20122;-90
2021/07/26 07:27:31;;;;;;;0.10;0.10;;;38.70;50.00;;;;;;5115279;28;20023;-91
2021/07/26 07:29:57;;;;;;;0.00;0.00;;;38.90;50.40;;;;;;5114825;28;20036;-90
2021/07/26 07:32:23;;;;;;;0.00;0.00;;;39.30;50.40;;;;;;5124308;28;20031;-91
2021/07/26 07:34:50;;;;;;;0.05;0.05;;;39.70;50.20;;;;;;5129750;28;20416;-90
2021/07/26 07:37:16;;;;;;;0.00;0.00;;;40.10;50.00;;;;;;5116174;28;20028;-90
2021/07/26 07:39:42;;;;;;;0.10;0.10;;;40.50;49.70;;;;;;5117275;28;20026;-91
2021/07/26 07:42:09;;;;;;;0.10;0.10;;;40.60;49.30;;;;;;5114944;28;20035;-90
2021/07/26 07:44:35;;;;;;;0.10;0.10;;;41.00;49.10;;;;;;5115581;28;20032;-91
2021/07/26 07:47:02;;;;;;;0.10;0.10;;;41.40;48.50;;;;;;5113637;28;20032;-90
2021/07/26 07:49:29;;;;;;;0.10;0.10;;;41.80;47.80;;;;;;5113776;28;20077;-91
2021/07/26 07:51:56;;;;;;;0.10;0.10;;;41.90;47.20;;;;;;5097598;28;20030;-90
2021/07/26 07:54:22;;;;;;;0.10;0.10;;;42.10;46.90;;;;;;5113610;28;20112;-91
2021/07/26 07:56:51;;;;;;;0.10;0.10;;;42.40;46.70;;;;;;5113045;28;20468;-91
2021/07/26 07:59:16;;;;;;;0.10;0.10;;;42.40;45.90;;;;;;5114231;28;20042;-90
2021/07/26 08:01:43;;;;;;;0.10;0.10;;;42.40;46.00;;;;;;5112717;28;20035;-91
2021/07/26 08:04:09;;;;;;;0.10;0.10;;;42.50;45.30;;;;;;5114184;28;20034;-90
2021/07/26 08:06:36;;;;;;;0.10;0.10;;;42.30;45.70;;;;;;5115872;28;20023;-91
2021/07/26 08:09:03;;;;;;;0.10;0.10;;;42.60;45.90;;;;;;5117818;28;20032;-91
2021/07/26 08:11:28;;;;;;;0.10;0.10;;;42.80;45.70;;;;;;5113773;28;20025;-91
2021/07/26 08:13:54;;;;;;;0.10;0.10;;;43.20;45.30;;;;;;5114389;28;20057;-90
2021/07/26 08:16:23;;;;;;;0.10;0.10;;;43.00;44.80;;;;;;5113546;28;20024;-91
2021/07/26 08:18:49;;;;;;;0.10;0.10;;;42.70;45.00;;;;;;5115233;28;20028;-91
2021/07/26 08:21:15;;;;;;;0.10;0.10;;;42.50;45.40;;;;;;5113114;28;20511;-91
2021/07/26 08:23:41;;;;;;;0.10;0.10;;;42.30;45.30;;;;;;5114813;28;20061;-91
2021/07/26 08:26:12;;;;;;;0.10;0.10;;;42.00;45.40;;;;;;5117145;28;20023;-89
2021/07/26 08:28:38;;;;;;;0.10;0.10;;;42.00;45.20;;;;;;5119686;28;20047;-87
2021/07/26 08:31:03;;;;;;;0.10;0.10;;;42.20;45.20;;;;;;5130519;28;20020;-89
2021/07/26 08:33:29;;;;;;;0.10;0.10;;;42.30;45.00;;;;;;5123838;28;20046;-91
2021/07/26 08:35:57;;;;;;;0.10;0.10;;;42.40;44.60;;;;;;5117110;28;20026;-90
2021/07/26 08:38:23;;;;;;;0.10;0.10;;;42.50;44.20;;;;;;5116451;28;20085;-89
2021/07/26 08:40:49;;;;;;;0.10;0.10;;;42.40;44.00;;;;;;5118915;28;20028;-89
2021/07/26 08:43:20;;;;;;;0.10;0.10;;;42.10;44.50;;;;;;5117466;28;20032;-92
2021/07/26 08:45:46;;;;;;;0.10;0.10;;;41.90;44.50;;;;;;5119230;28;20065;-92
2021/07/26 08:48:14;;;;;;;0.10;0.10;;;41.50;44.90;;;;;;5119104;28;20496;-90
2021/07/26 08:50:50;;;;;;;0.10;0.10;;;41.40;45.50;;;;;;5116545;28;20026;-91
2021/07/26 08:53:19;;;;;;;0.10;0.10;;;41.40;44.90;;;;;;5118405;28;20038;-90
2021/07/26 08:55:48;;;;;;;0.10;0.10;;;41.20;44.60;;;;;;5118179;28;20024;-92
2021/07/26 08:58:15;;;;;;;0.10;0.10;;;41.10;45.00;;;;;;5117379;28;20042;-91
2021/07/26 09:00:42;;;;;;;0.10;0.10;;;41.20;44.90;;;;;;5117811;28;20031;-88
2021/07/26 09:03:08;;;;;;;0.10;0.10;;;41.30;45.00;;;;;;5116817;28;20032;-92
2021/07/26 09:05:34;;;;;;;0.10;0.10;;;41.40;45.10;;;;;;5118340;28;20026;-92
2021/07/26 09:08:01;;;;;;;0.10;0.10;;;41.80;44.40;;;;;;5117990;28;20084;-90
2021/07/26 09:10:29;;;;;;;0.10;0.10;;;41.90;44.10;;;;;;5118192;28;20552;-90
2021/07/26 09:12:56;;;;;;;0.13;0.13;;;42.10;44.10;;;;;;5116851;28;20088;-88
2021/07/26 09:15:30;;;;;;;0.10;0.10;;;42.50;44.20;;;;;;5118231;28;20476;-89
2021/07/26 09:18:02;;;;;;;0.13;0.13;;;42.90;43.70;;;;;;5117686;28;20034;-88
2021/07/26 09:20:29;;;;;;;0.10;0.10;;;43.20;43.20;;;;;;5117571;28;20114;-91
2021/07/26 09:23:09;;;;;;;0.10;0.10;;;43.60;42.90;;;;;;5115337;28;20036;-90
2021/07/26 09:25:35;;;;;;;0.13;0.13;;;43.50;41.90;;;;;;5116628;28;20107;-91
2021/07/26 09:28:04;;;;;;;0.15;0.15;;;43.50;41.90;;;;;;5115582;28;20107;-91
2021/07/26 09:30:39;;;;;;;0.10;0.10;;;43.70;40.70;;;;;;5116201;28;20160;-88
2021/07/26 09:33:20;;;;;;;0.10;0.10;;;43.60;39.90;;;;;;5116291;28;20028;-90
2021/07/26 09:36:04;;;;;;;0.10;0.10;;;43.20;40.00;;;;;;5115284;28;20499;-92
2021/07/26 09:38:31;;;;;;;0.10;0.10;;;43.00;40.60;;;;;;5116002;28;20060;-91
2021/07/26 09:40:56;;;;;;;0.10;0.10;;;43.00;40.70;;;;;;5116616;28;20106;-89
2021/07/26 09:43:24;;;;;;;0.10;0.10;;;43.60;40.90;;;;;;5118396;28;20073;-89
2021/07/26 09:45:54;;;;;;;0.20;0.20;;;44.00;39.20;;;;;;5114799;28;20053;-90
2021/07/26 09:48:32;;;;;;;0.20;0.20;;;44.00;38.40;;;;;;5115788;28;20130;-91
2021/07/26 09:51:05;;;;;;;0.10;0.10;;;44.10;38.40;;;;;;5118244;28;20039;-89
2021/07/26 09:53:30;;;;;;;0.13;0.13;;;44.20;38.10;;;;;;5115239;28;20500;-90
2021/07/26 09:55:58;;;;;;;0.10;0.10;;;43.90;37.50;;;;;;5115006;28;20036;-90
2021/07/26 09:58:38;;;;;;;0.10;0.10;;;43.60;37.70;;;;;;5115188;28;20118;-88
2021/07/26 10:01:06;;;;;;;0.10;0.10;;;43.20;37.30;;;;;;5115417;28;20032;-91
2021/07/26 10:03:32;;;;;;;0.10;0.10;;;43.20;38.50;;;;;;5114959;28;20039;-89
2021/07/26 10:05:59;;;;;;;0.10;0.10;;;43.40;38.00;;;;;;5114845;28;20036;-89
2021/07/26 10:08:27;;;;;;;0.10;0.10;;;43.10;37.50;;;;;;5116177;28;20397;-90
2021/07/26 10:10:54;;;;;;;0.10;0.10;;;42.60;37.50;;;;;;5115334;28;20028;-91
2021/07/26 10:13:21;;;;;;;0.10;0.10;;;42.40;37.30;;;;;;5115211;28;20053;-90
2021/07/26 10:15:49;;;;;;;0.10;0.10;;;42.40;37.50;;;;;;5115139;28;20136;-91
2021/07/26 10:18:16;;;;;;;0.10;0.10;;;42.70;36.90;;;;;;5114316;28;20031;-91
2021/07/26 10:20:47;;;;;;;0.10;0.10;;;42.50;36.70;;;;;;5115519;28;20452;-87
2021/07/26 10:23:28;;;;;;;0.10;0.10;;;42.40;37.20;;;;;;5115067;28;20092;-87
2021/07/26 10:26:00;;;;;;;0.10;0.10;;;42.30;36.80;;;;;;5115205;28;20047;-90
2021/07/26 10:28:30;;;;;;;0.10;0.10;;;42.20;36.90;;;;;;5117981;28;20027;-89
2021/07/26 10:30:56;;;;;;;0.10;0.10;;;42.30;36.90;;;;;;5121022;28;20049;-88
2021/07/26 10:33:23;;;;;;;0.10;0.10;;;42.90;36.50;;;;;;5117765;28;20038;-87
2021/07/26 10:35:49;;;;;;;0.10;0.10;;;43.10;35.90;;;;;;5116734;28;20503;-86
2021/07/26 10:38:41;;;;;;;0.10;0.10;;;43.20;35.70;;;;;;5114964;28;20469;-90
2021/07/26 10:41:07;;;;;;;0.10;0.10;;;43.30;35.80;;;;;;5115999;28;20126;-89
2021/07/26 10:44:00;;;;;;;0.10;0.10;;;43.20;35.10;;;;;;5115677;28;20039;-87
2021/07/26 10:46:26;;;;;;;0.10;0.10;;;42.90;35.50;;;;;;5114115;28;20031;-90
2021/07/26 10:48:52;;;;;;;0.10;0.10;;;42.90;35.80;;;;;;5114464;28;20024;-87
2021/07/26 10:51:42;;;;;;;0.10;0.10;;;43.10;35.50;;;;;;5115380;28;20027;-90
2021/07/26 10:54:09;;;;;;;0.10;0.10;;;43.10;35.50;;;;;;5114181;28;20026;-87
2021/07/26 10:57:00;;;;;;;0.10;0.10;;;42.60;35.90;;;;;;5114138;28;20488;-88
2021/07/26 10:59:26;;;;;;;0.10;0.10;;;42.30;35.80;;;;;;5113947;28;20027;-89
2021/07/26 11:01:58;;;;;;;0.10;0.10;;;42.20;36.20;;;;;;5115546;28;20571;-89
2021/07/26 11:04:39;;;;;;;0.10;0.10;;;42.20;36.40;;;;;;5116492;28;20051;-90
2021/07/26 11:07:09;;;;;;;0.10;0.10;;;42.60;36.30;;;;;;5118240;28;20069;-88
2021/07/26 11:09:39;;;;;;;0.10;0.10;;;42.90;35.90;;;;;;5119174;28;20031;-86
2021/07/26 11:12:05;;;;;;;0.10;0.10;;;43.20;35.80;;;;;;5119007;28;20031;-89
2021/07/26 11:14:31;;;;;;;0.10;0.10;;;43.10;35.90;;;;;;5114230;28;20392;-91
2021/07/26 11:17:04;;;;;;;0.10;0.10;;;43.00;35.80;;;;;;5115859;28;20028;-89
2021/07/26 11:19:37;;;;;;;0.10;0.10;;;43.00;35.90;;;;;;5113947;28;20032;-89
2021/07/26 11:22:09;;;;;;;0.10;0.10;;;43.40;35.90;;;;;;5112852;28;20036;-91
2021/07/26 11:24:46;;;;;;;0.10;0.10;;;43.90;35.60;;;;;;5114258;28;20041;-90
2021/07/26 11:27:15;;;;;;;0.10;0.10;;;43.90;34.80;;;;;;5117058;28;20028;-89
2021/07/26 11:29:52;;;;;;;0.10;0.10;;;43.50;35.20;;;;;;5117399;28;20027;-88
2021/07/26 11:32:26;;;;;;;0.10;0.10;;;43.50;34.90;;;;;;5113008;28;20024;-88
2021/07/26 11:35:02;;;;;;;0.10;0.10;;;42.90;35.50;;;;;;5113399;28;20048;-89
2021/07/26 11:37:39;;;;;;;0.10;0.10;;;42.40;36.10;;;;;;5112894;28;20102;-88
2021/07/26 11:40:06;;;;;;;0.10;0.10;;;42.50;35.70;;;;;;5115310;28;20484;-91
2021/07/26 11:42:36;;;;;;;0.10;0.10;;;42.10;35.90;;;;;;5113968;28;20040;-89
2021/07/26 11:45:05;;;;;;;0.10;0.10;;;42.20;35.90;;;;;;5113975;28;20043;-89
2021/07/26 11:47:40;;;;;;;0.10;0.10;;;42.10;35.70;;;;;;5113064;28;20045;-90
2021/07/26 11:50:14;;;;;;;0.10;0.10;;;42.40;35.90;;;;;;5113530;28;20024;-89
2021/07/26 11:52:54;;;;;;;0.10;0.10;;;42.80;35.60;;;;;;5113202;28;20114;-88
2021/07/26 11:55:21;;;;;;;0.10;0.10;;;42.90;35.20;;;;;;5112707;28;20030;-86
2021/07/26 11:58:03;;;;;;;0.10;0.10;;;42.60;35.30;;;;;;5111842;28;20085;-91
2021/07/26 12:00:32;;;;;;;0.10;0.10;;;42.30;35.60;;;;;;5115692;28;20032;-89
2021/07/26 12:02:59;;;;;;;0.10;0.10;;;42.30;35.60;;;;;;5117533;28;20067;-88
2021/07/26 12:05:31;;;;;;;0.10;0.10;;;42.40;35.40;;;;;;5120734;28;20065;-88
2021/07/26 12:08:11;;;;;;;0.10;0.10;;;42.50;35.50;;;;;;5120840;28;20038;-90
2021/07/26 12:10:38;;;;;;;0.10;0.10;;;42.70;35.60;;;;;;5118500;28;20027;-88
2021/07/26 12:13:08;;;;;;;0.10;0.10;;;42.50;35.50;;;;;;5116957;28;20036;-91
2021/07/26 12:15:34;;;;;;;0.10;0.10;;;42.50;35.60;;;;;;5117260;28;20019;-89
2021/07/26 12:18:01;;;;;;;0.05;0.05;;;42.30;35.80;;;;;;5117485;28;20528;-89
2021/07/26 12:20:26;;;;;;;0.10;0.10;;;42.10;35.60;;;;;;5116946;28;20072;-87
2021/07/26 12:22:52;;;;;;;0.10;0.10;;;41.90;34.80;;;;;;5117510;28;20032;-89
2021/07/26 12:25:22;;;;;;;0.10;0.10;;;41.70;35.20;;;;;;5116740;28;20043;-87
2021/07/26 12:28:04;;;;;;;0.10;0.10;;;41.20;35.00;;;;;;5117279;28;20468;-88
2021/07/26 12:30:38;;;;;;;0.00;0.00;;;40.40;35.10;;;;;;5117917;28;20094;-91
2021/07/26 12:33:06;;;;;;;0.00;0.00;;;39.80;35.70;;;;;;5119275;28;20464;-90
2021/07/26 12:35:32;;;;;;;0.00;0.00;;;39.90;36.20;;;;;;5117715;28;20043;-90
2021/07/26 12:38:18;;;;;;;0.00;0.00;;;40.00;35.90;;;;;;5116563;28;20448;-89
2021/07/26 12:40:47;;;;;;;0.00;0.00;;;39.40;35.70;;;;;;5116644;28;20477;-88
2021/07/26 12:43:26;;;;;;;0.10;0.10;;;38.70;36.00;;;;;;5116858;28;20023;-87
2021/07/26 12:46:03;;;;;;;0.00;0.00;;;38.70;36.80;;;;;;5116460;28;20054;-89
2021/07/26 12:48:30;;;;;;;0.00;0.00;;;39.10;36.80;;;;;;5117489;28;20123;-91
2021/07/26 12:51:00;;;;;;;0.00;0.00;;;39.50;36.60;;;;;;5117314;28;20020;-89
2021/07/26 12:53:27;;;;;;;0.00;0.00;;;40.20;36.30;;;;;;5119273;28;20042;-89